sensor_id;sensor_type;location;lat;lon;timestamp;pressure;altitude;pressure_sealevel;temperature;humidity
68525;BME280;55524;51.380;13.372;2023-05-24T00:01:53;100860.03;;;9.98;94.79
68525;BME280;55524;51.380;13.372;2023-05-24T00:04:21;100858.59;;;9.87;94.84
68525;BME280;55524;51.380;13.372;2023-05-24T00:06:50;100864.03;;;9.80;96.00
68525;BME280;55524;51.380;13.372;2023-05-24T00:09:16;100859.53;;;9.84;95.11
68525;BME280;55524;51.380;13.372;2023-05-24T00:11:43;100857.03;;;9.79;95.25
68525;BME280;55524;51.380;13.372;2023-05-24T00:14:09;100858.94;;;9.73;95.00
68525;BME280;55524;51.380;13.372;2023-05-24T00:16:35;100867.06;;;9.67;94.81
68525;BME280;55524;51.380;13.372;2023-05-24T00:21:32;100866.41;;;9.58;95.51
68525;BME280;55524;51.380;13.372;2023-05-24T00:24:01;100866.47;;;9.54;95.60
68525;BME280;55524;51.380;13.372;2023-05-24T00:26:27;100865.69;;;9.52;94.79
68525;BME280;55524;51.380;13.372;2023-05-24T00:28:54;100867.59;;;9.45;94.82
68525;BME280;55524;51.380;13.372;2023-05-24T00:31:20;100867.84;;;9.36;94.90
68525;BME280;55524;51.380;13.372;2023-05-24T00:33:46;100859.06;;;9.35;94.47
68525;BME280;55524;51.380;13.372;2023-05-24T00:36:13;100867.00;;;9.34;93.44
68525;BME280;55524;51.380;13.372;2023-05-24T00:38:39;100866.22;;;9.30;93.42
68525;BME280;55524;51.380;13.372;2023-05-24T00:41:05;100871.59;;;9.27;93.38
68525;BME280;55524;51.380;13.372;2023-05-24T00:43:32;100869.94;;;9.23;93.18
68525;BME280;55524;51.380;13.372;2023-05-24T00:46:11;100868.16;;;9.24;93.07
68525;BME280;55524;51.380;13.372;2023-05-24T00:48:40;100866.63;;;9.15;92.80
68525;BME280;55524;51.380;13.372;2023-05-24T00:51:07;100871.91;;;9.15;93.02
68525;BME280;55524;51.380;13.372;2023-05-24T00:53:35;100877.38;;;9.06;93.09
68525;BME280;55524;51.380;13.372;2023-05-24T00:56:02;100869.44;;;9.07;91.94
68525;BME280;55524;51.380;13.372;2023-05-24T00:58:30;100873.84;;;9.07;91.78
68525;BME280;55524;51.380;13.372;2023-05-24T01:01:01;100870.44;;;9.02;91.62
68525;BME280;55524;51.380;13.372;2023-05-24T01:03:29;100879.38;;;8.95;91.54
68525;BME280;55524;51.380;13.372;2023-05-24T01:05:59;100876.66;;;8.99;90.09
68525;BME280;55524;51.380;13.372;2023-05-24T01:16:40;100878.75;;;8.85;90.02
68525;BME280;55524;51.380;13.372;2023-05-24T01:27:43;100883.28;;;8.78;89.58
68525;BME280;55524;51.380;13.372;2023-05-24T01:30:09;100881.63;;;8.74;88.74
68525;BME280;55524;51.380;13.372;2023-05-24T01:32:37;100879.03;;;8.73;89.04
68525;BME280;55524;51.380;13.372;2023-05-24T01:35:04;100885.13;;;8.75;88.56
68525;BME280;55524;51.380;13.372;2023-05-24T01:37:31;100883.34;;;8.77;89.34
68525;BME280;55524;51.380;13.372;2023-05-24T01:39:57;100886.03;;;8.74;89.30
68525;BME280;55524;51.380;13.372;2023-05-24T01:43:14;100884.25;;;8.76;88.70
68525;BME280;55524;51.380;13.372;2023-05-24T01:50:52;100881.78;;;8.68;89.13
68525;BME280;55524;51.380;13.372;2023-05-24T01:53:21;100887.84;;;8.72;89.05
68525;BME280;55524;51.380;13.372;2023-05-24T01:55:54;100885.38;;;8.64;89.78
68525;BME280;55524;51.380;13.372;2023-05-24T01:58:22;100882.81;;;8.61;89.99
68525;BME280;55524;51.380;13.372;2023-05-24T02:00:51;100885.31;;;8.67;90.13
68525;BME280;55524;51.380;13.372;2023-05-24T02:03:18;100882.66;;;8.69;89.83
68525;BME280;55524;51.380;13.372;2023-05-24T02:05:45;100884.53;;;8.64;89.94
68525;BME280;55524;51.380;13.372;2023-05-24T02:08:11;100876.63;;;8.62;89.56
68525;BME280;55524;51.380;13.372;2023-05-24T02:10:39;100881.94;;;8.60;89.75
68525;BME280;55524;51.380;13.372;2023-05-24T02:13:06;100886.41;;;8.57;89.44
68525;BME280;55524;51.380;13.372;2023-05-24T02:15:33;100883.81;;;8.55;89.64
68525;BME280;55524;51.380;13.372;2023-05-24T02:18:00;100881.09;;;8.58;89.48
68525;BME280;55524;51.380;13.372;2023-05-24T02:20:30;100873.19;;;8.58;89.09
68525;BME280;55524;51.380;13.372;2023-05-24T02:22:56;100874.16;;;8.56;89.41
68525;BME280;55524;51.380;13.372;2023-05-24T02:25:23;100882.16;;;8.51;90.25
68525;BME280;55524;51.380;13.372;2023-05-24T02:27:49;100882.97;;;8.53;89.71
68525;BME280;55524;51.380;13.372;2023-05-24T02:30:17;100874.16;;;8.54;89.52
68525;BME280;55524;51.380;13.372;2023-05-24T02:32:43;100876.69;;;8.59;89.57
68525;BME280;55524;51.380;13.372;2023-05-24T02:35:09;100869.69;;;8.58;89.98
68525;BME280;55524;51.380;13.372;2023-05-24T02:37:36;100877.78;;;8.50;90.51
68525;BME280;55524;51.380;13.372;2023-05-24T02:40:02;100878.72;;;8.48;90.55
68525;BME280;55524;51.380;13.372;2023-05-24T02:42:29;100876.91;;;8.50;90.48
68525;BME280;55524;51.380;13.372;2023-05-24T02:44:55;100876.09;;;8.46;91.01
68525;BME280;55524;51.380;13.372;2023-05-24T02:47:21;100877.06;;;8.44;90.68
68525;BME280;55524;51.380;13.372;2023-05-24T02:49:48;100866.66;;;8.36;91.09
68525;BME280;55524;51.380;13.372;2023-05-24T02:52:14;100874.59;;;8.33;91.77
68525;BME280;55524;51.380;13.372;2023-05-24T02:54:41;100872.09;;;8.27;91.87
68525;BME280;55524;51.380;13.372;2023-05-24T02:57:07;100867.03;;;8.18;91.61
68525;BME280;55524;51.380;13.372;2023-05-24T02:59:33;100867.88;;;8.18;92.22
68525;BME280;55524;51.380;13.372;2023-05-24T03:02:00;100873.31;;;8.12;92.57
68525;BME280;55524;51.380;13.372;2023-05-24T03:04:26;100871.63;;;8.08;93.24
68525;BME280;55524;51.380;13.372;2023-05-24T03:06:52;100871.69;;;8.03;93.33
68525;BME280;55524;51.380;13.372;2023-05-24T03:09:19;100876.03;;;8.06;93.06
68525;BME280;55524;51.380;13.372;2023-05-24T03:11:45;100886.13;;;7.84;94.81
68525;BME280;55524;51.380;13.372;2023-05-24T03:14:11;100882.69;;;7.79;95.24
68525;BME280;55524;51.380;13.372;2023-05-24T03:16:38;100875.81;;;7.72;95.00
68525;BME280;55524;51.380;13.372;2023-05-24T03:19:04;100880.31;;;7.67;95.30
68525;BME280;55524;51.380;13.372;2023-05-24T03:21:31;100876.72;;;7.71;95.22
68525;BME280;55524;51.380;13.372;2023-05-24T03:23:57;100883.88;;;7.62;95.53
68525;BME280;55524;51.380;13.372;2023-05-24T03:26:23;100891.94;;;7.52;96.31
68525;BME280;55524;51.380;13.372;2023-05-24T03:28:50;100887.50;;;7.55;96.58
68525;BME280;55524;51.380;13.372;2023-05-24T03:31:17;100890.28;;;7.49;97.15
68525;BME280;55524;51.380;13.372;2023-05-24T03:33:45;100892.06;;;7.46;96.47
68525;BME280;55524;51.380;13.372;2023-05-24T03:36:12;100880.78;;;7.39;96.68
68525;BME280;55524;51.380;13.372;2023-05-24T03:38:38;100879.09;;;7.36;97.11
68525;BME280;55524;51.380;13.372;2023-05-24T03:41:04;100890.53;;;7.34;97.23
68525;BME280;55524;51.380;13.372;2023-05-24T03:43:31;100888.81;;;7.33;96.72
68525;BME280;55524;51.380;13.372;2023-05-24T03:45:57;100894.00;;;7.34;96.79
68525;BME280;55524;51.380;13.372;2023-05-24T03:48:23;100894.94;;;7.32;97.51
68525;BME280;55524;51.380;13.372;2023-05-24T03:50:49;100892.16;;;7.39;97.25
68525;BME280;55524;51.380;13.372;2023-05-24T03:53:16;100894.88;;;7.36;96.94
68525;BME280;55524;51.380;13.372;2023-05-24T03:55:42;100897.44;;;7.41;97.21
68525;BME280;55524;51.380;13.372;2023-05-24T03:58:08;100900.88;;;7.43;96.95
68525;BME280;55524;51.380;13.372;2023-05-24T04:00:35;100905.22;;;7.44;97.01
68525;BME280;55524;51.380;13.372;2023-05-24T04:03:01;100909.50;;;7.51;97.09
68525;BME280;55524;51.380;13.372;2023-05-24T04:05:28;100905.06;;;7.55;96.90
68525;BME280;55524;51.380;13.372;2023-05-24T04:07:55;100905.06;;;7.56;96.36
68525;BME280;55524;51.380;13.372;2023-05-24T04:10:21;100909.38;;;7.60;96.34
68525;BME280;55524;51.380;13.372;2023-05-24T04:12:48;100911.81;;;7.70;96.81
68525;BME280;55524;51.380;13.372;2023-05-24T04:15:14;100919.56;;;7.77;96.26
68525;BME280;55524;51.380;13.372;2023-05-24T04:17:44;100916.00;;;7.81;96.68
68525;BME280;55524;51.380;13.372;2023-05-24T04:20:12;100917.63;;;7.87;96.07
68525;BME280;55524;51.380;13.372;2023-05-24T04:22:39;100920.22;;;7.90;95.99
68525;BME280;55524;51.380;13.372;2023-05-24T04:25:06;100921.97;;;7.89;96.01
68525;BME280;55524;51.380;13.372;2023-05-24T04:27:32;100927.16;;;7.94;96.13
68525;BME280;55524;51.380;13.372;2023-05-24T04:29:58;100927.00;;;8.02;95.56
68525;BME280;55524;51.380;13.372;2023-05-24T04:32:25;100925.00;;;8.14;95.63
68525;BME280;55524;51.380;13.372;2023-05-24T04:34:55;100927.69;;;8.11;95.89
68525;BME280;55524;51.380;13.372;2023-05-24T04:37:21;100932.75;;;8.22;95.19
68525;BME280;55524;51.380;13.372;2023-05-24T04:39:47;100930.00;;;8.28;94.75
68525;BME280;55524;51.380;13.372;2023-05-24T04:42:15;100934.25;;;8.37;94.32
68525;BME280;55524;51.380;13.372;2023-05-24T04:44:42;100931.63;;;8.35;94.62
68525;BME280;55524;51.380;13.372;2023-05-24T04:47:08;100936.88;;;8.37;94.84
68525;BME280;55524;51.380;13.372;2023-05-24T04:49:35;100944.69;;;8.42;94.41
68525;BME280;55524;51.380;13.372;2023-05-24T04:52:02;100946.41;;;8.43;94.58
68525;BME280;55524;51.380;13.372;2023-05-24T04:54:29;100948.00;;;8.51;93.34
68525;BME280;55524;51.380;13.372;2023-05-24T04:56:55;100947.06;;;8.54;92.93
68525;BME280;55524;51.380;13.372;2023-05-24T04:59:21;100940.03;;;8.54;92.38
68525;BME280;55524;51.380;13.372;2023-05-24T05:01:48;100946.00;;;8.62;92.75
68525;BME280;55524;51.380;13.372;2023-05-24T05:04:14;100946.84;;;8.63;92.12
68525;BME280;55524;51.380;13.372;2023-05-24T05:06:43;100952.00;;;8.69;91.41
68525;BME280;55524;51.380;13.372;2023-05-24T05:09:10;100958.16;;;8.70;91.43
68525;BME280;55524;51.380;13.372;2023-05-24T05:11:39;100955.41;;;8.74;90.40
68525;BME280;55524;51.380;13.372;2023-05-24T05:14:05;100958.03;;;8.76;89.61
68525;BME280;55524;51.380;13.372;2023-05-24T05:16:34;100958.69;;;8.85;91.06
68525;BME280;55524;51.380;13.372;2023-05-24T05:19:02;100957.88;;;8.83;89.79
68525;BME280;55524;51.380;13.372;2023-05-24T05:21:32;100960.22;;;8.96;90.18
68525;BME280;55524;51.380;13.372;2023-05-24T05:24:02;100963.69;;;8.98;89.79
68525;BME280;55524;51.380;13.372;2023-05-24T05:26:29;100953.75;;;9.09;88.32
68525;BME280;55524;51.380;13.372;2023-05-24T05:28:59;100965.16;;;9.11;88.23
68525;BME280;55524;51.380;13.372;2023-05-24T05:31:25;100962.72;;;9.02;88.12
68525;BME280;55524;51.380;13.372;2023-05-24T05:33:51;100964.53;;;8.98;88.27
68525;BME280;55524;51.380;13.372;2023-05-24T05:36:18;100969.78;;;9.00;88.47
68525;BME280;55524;51.380;13.372;2023-05-24T05:38:44;100961.66;;;9.09;87.59
68525;BME280;55524;51.380;13.372;2023-05-24T05:41:11;100971.41;;;9.07;87.57
68525;BME280;55524;51.380;13.372;2023-05-24T05:43:38;100970.59;;;9.03;86.89
68525;BME280;55524;51.380;13.372;2023-05-24T05:46:04;100969.63;;;9.07;86.75
68525;BME280;55524;51.380;13.372;2023-05-24T05:48:31;100968.13;;;8.96;86.39
68525;BME280;55524;51.380;13.372;2023-05-24T05:50:57;100978.69;;;8.94;86.32
68525;BME280;55524;51.380;13.372;2023-05-24T05:53:24;100975.19;;;8.95;86.40
68525;BME280;55524;51.380;13.372;2023-05-24T05:55:50;100982.03;;;9.02;86.92
68525;BME280;55524;51.380;13.372;2023-05-24T05:58:17;100974.03;;;9.07;85.94
68525;BME280;55524;51.380;13.372;2023-05-24T06:00:43;100980.28;;;9.01;86.19
68525;BME280;55524;51.380;13.372;2023-05-24T06:03:09;100977.66;;;9.03;85.99
68525;BME280;55524;51.380;13.372;2023-05-24T06:05:36;100979.38;;;9.04;85.56
68525;BME280;55524;51.380;13.372;2023-05-24T06:08:02;100977.38;;;9.14;85.63
68525;BME280;55524;51.380;13.372;2023-05-24T06:10:28;100979.94;;;9.17;85.54
68525;BME280;55524;51.380;13.372;2023-05-24T06:12:54;100979.94;;;9.17;85.69
68525;BME280;55524;51.380;13.372;2023-05-24T06:15:21;100980.06;;;9.10;84.09
68525;BME280;55524;51.380;13.372;2023-05-24T06:17:48;100980.06;;;9.12;84.79
68525;BME280;55524;51.380;13.372;2023-05-24T06:20:14;100982.47;;;9.21;84.50
68525;BME280;55524;51.380;13.372;2023-05-24T06:22:41;100982.31;;;9.29;84.31
68525;BME280;55524;51.380;13.372;2023-05-24T06:25:09;100980.81;;;9.17;83.56
68525;BME280;55524;51.380;13.372;2023-05-24T06:27:35;100985.81;;;9.29;83.97
68525;BME280;55524;51.380;13.372;2023-05-24T06:30:01;100973.25;;;9.41;83.54
68525;BME280;55524;51.380;13.372;2023-05-24T06:32:28;100982.13;;;9.36;83.25
68525;BME280;55524;51.380;13.372;2023-05-24T06:34:54;100970.72;;;9.36;82.58
68525;BME280;55524;51.380;13.372;2023-05-24T06:37:21;100975.81;;;9.42;83.25
68525;BME280;55524;51.380;13.372;2023-05-24T06:39:50;100961.94;;;9.34;82.19
68525;BME280;55524;51.380;13.372;2023-05-24T06:42:16;100980.16;;;9.45;82.42
68525;BME280;55524;51.380;13.372;2023-05-24T06:44:43;100975.88;;;9.41;82.13
68525;BME280;55524;51.380;13.372;2023-05-24T06:47:09;100979.34;;;9.43;81.89
68525;BME280;55524;51.380;13.372;2023-05-24T06:49:35;100989.50;;;9.59;82.46
68525;BME280;55524;51.380;13.372;2023-05-24T06:52:02;100986.59;;;9.70;81.46
68525;BME280;55524;51.380;13.372;2023-05-24T06:54:28;100972.69;;;9.62;80.78
68525;BME280;55524;51.380;13.372;2023-05-24T06:56:55;100977.88;;;9.67;79.82
68525;BME280;55524;51.380;13.372;2023-05-24T06:59:22;100995.63;;;9.60;80.09
68525;BME280;55524;51.380;13.372;2023-05-24T07:01:48;100986.47;;;9.75;79.66
68525;BME280;55524;51.380;13.372;2023-05-24T07:04:18;100991.66;;;9.78;79.74
68525;BME280;55524;51.380;13.372;2023-05-24T07:06:44;101000.09;;;9.92;79.83
68525;BME280;55524;51.380;13.372;2023-05-24T07:09:10;100983.53;;;9.85;78.77
68525;BME280;55524;51.380;13.372;2023-05-24T07:11:37;100989.66;;;9.88;78.42
68525;BME280;55524;51.380;13.372;2023-05-24T07:14:03;100991.38;;;9.90;78.09
68525;BME280;55524;51.380;13.372;2023-05-24T07:16:30;100984.13;;;9.98;76.98
68525;BME280;55524;51.380;13.372;2023-05-24T07:18:56;100978.47;;;10.12;77.79
68525;BME280;55524;51.380;13.372;2023-05-24T07:21:23;100983.72;;;10.14;77.36
68525;BME280;55524;51.380;13.372;2023-05-24T07:23:50;100980.19;;;10.13;77.25
68525;BME280;55524;51.380;13.372;2023-05-24T07:26:17;100977.09;;;9.97;75.53
68525;BME280;55524;51.380;13.372;2023-05-24T07:28:43;100973.38;;;10.04;75.88
68525;BME280;55524;51.380;13.372;2023-05-24T07:31:10;100980.91;;;10.20;75.66
68525;BME280;55524;51.380;13.372;2023-05-24T07:33:36;100983.22;;;10.32;76.08
68525;BME280;55524;51.380;13.372;2023-05-24T07:36:04;100954.56;;;10.49;73.08
68525;BME280;55524;51.380;13.372;2023-05-24T07:38:30;100936.97;;;10.48;71.88
68525;BME280;55524;51.380;13.372;2023-05-24T07:41:01;100941.09;;;10.58;70.81
68525;BME280;55524;51.380;13.372;2023-05-24T07:43:29;100949.44;;;10.43;71.83
68525;BME280;55524;51.380;13.372;2023-05-24T07:45:55;100933.84;;;10.65;70.51
68525;BME280;55524;51.380;13.372;2023-05-24T07:48:22;100931.75;;;10.47;69.53
68525;BME280;55524;51.380;13.372;2023-05-24T07:50:49;100917.94;;;10.67;68.83
68525;BME280;55524;51.380;13.372;2023-05-24T07:53:18;100906.81;;;10.85;66.74
68525;BME280;55524;51.380;13.372;2023-05-24T07:55:45;100910.72;;;11.00;67.11
68525;BME280;55524;51.380;13.372;2023-05-24T07:58:12;100908.28;;;10.94;66.88
68525;BME280;55524;51.380;13.372;2023-05-24T08:00:41;100925.34;;;10.83;67.86
68525;BME280;55524;51.380;13.372;2023-05-24T08:03:08;100928.22;;;10.76;68.79
68525;BME280;55524;51.380;13.372;2023-05-24T08:05:35;100933.25;;;10.85;68.91
68525;BME280;55524;51.380;13.372;2023-05-24T08:08:04;100922.16;;;10.72;67.51
68525;BME280;55524;51.380;13.372;2023-05-24T08:10:31;100936.59;;;10.90;68.10
68525;BME280;55524;51.380;13.372;2023-05-24T08:12:57;100927.59;;;10.97;67.38
68525;BME280;55524;51.380;13.372;2023-05-24T08:15:24;100907.44;;;11.20;66.06
68525;BME280;55524;51.380;13.372;2023-05-24T08:17:52;100893.81;;;11.32;64.28
68525;BME280;55524;51.380;13.372;2023-05-24T08:20:20;100890.38;;;11.30;64.13
68525;BME280;55524;51.380;13.372;2023-05-24T08:22:47;100877.69;;;11.40;62.91
68525;BME280;55524;51.380;13.372;2023-05-24T08:25:13;100862.69;;;11.65;61.14
68525;BME280;55524;51.380;13.372;2023-05-24T08:27:40;100882.28;;;11.60;61.56
68525;BME280;55524;51.380;13.372;2023-05-24T08:30:07;100878.03;;;11.55;61.52
68525;BME280;55524;51.380;13.372;2023-05-24T08:32:34;100873.88;;;11.48;61.35
68525;BME280;55524;51.380;13.372;2023-05-24T08:35:01;100866.19;;;11.92;60.47
68525;BME280;55524;51.380;13.372;2023-05-24T08:37:27;100892.81;;;12.13;61.64
68525;BME280;55524;51.380;13.372;2023-05-24T08:39:56;100871.19;;;12.23;59.02
68525;BME280;55524;51.380;13.372;2023-05-24T08:42:23;100871.00;;;12.29;59.12
68525;BME280;55524;51.380;13.372;2023-05-24T08:45:01;100867.59;;;12.26;59.17
68525;BME280;55524;51.380;13.372;2023-05-24T08:47:29;100879.34;;;12.42;59.24
68525;BME280;55524;51.380;13.372;2023-05-24T08:49:56;100868.28;;;12.31;58.84
68525;BME280;55524;51.380;13.372;2023-05-24T08:52:22;100865.91;;;12.23;57.56
68525;BME280;55524;51.380;13.372;2023-05-24T08:54:50;100867.97;;;12.39;58.08
68525;BME280;55524;51.380;13.372;2023-05-24T08:57:18;100880.47;;;12.59;57.96
68525;BME280;55524;51.380;13.372;2023-05-24T08:59:45;100867.22;;;12.59;58.02
68525;BME280;55524;51.380;13.372;2023-05-24T09:02:13;100889.31;;;12.59;59.17
68525;BME280;55524;51.380;13.372;2023-05-24T09:04:41;100894.75;;;12.07;59.48
68525;BME280;55524;51.380;13.372;2023-05-24T09:07:10;100890.66;;;11.99;59.12
68525;BME280;55524;51.380;13.372;2023-05-24T09:09:42;100893.13;;;12.28;59.14
68525;BME280;55524;51.380;13.372;2023-05-24T09:12:14;100889.25;;;12.37;57.77
68525;BME280;55524;51.380;13.372;2023-05-24T09:14:45;100898.75;;;12.19;58.76
68525;BME280;55524;51.380;13.372;2023-05-24T09:17:13;100899.28;;;12.29;59.20
68525;BME280;55524;51.380;13.372;2023-05-24T09:19:45;100907.44;;;12.70;60.59
68525;BME280;55524;51.380;13.372;2023-05-24T09:22:16;100906.09;;;12.82;59.71
68525;BME280;55524;51.380;13.372;2023-05-24T09:24:52;100883.25;;;12.79;57.93
68525;BME280;55524;51.380;13.372;2023-05-24T09:27:19;100880.44;;;12.82;58.30
68525;BME280;55524;51.380;13.372;2023-05-24T09:29:49;100891.97;;;12.81;58.19
68525;BME280;55524;51.380;13.372;2023-05-24T09:32:19;100878.91;;;12.98;57.69
68525;BME280;55524;51.380;13.372;2023-05-24T09:34:49;100903.41;;;12.83;59.58
68525;BME280;55524;51.380;13.372;2023-05-24T09:37:19;100907.13;;;12.55;58.96
68525;BME280;55524;51.380;13.372;2023-05-24T09:39:47;100908.31;;;12.70;59.51
68525;BME280;55524;51.380;13.372;2023-05-24T09:42:18;100907.16;;;12.77;58.96
68525;BME280;55524;51.380;13.372;2023-05-24T09:44:48;100917.72;;;12.79;60.07
68525;BME280;55524;51.380;13.372;2023-05-24T09:47:15;100898.53;;;12.94;58.71
68525;BME280;55524;51.380;13.372;2023-05-24T09:49:41;100887.13;;;13.36;57.58
68525;BME280;55524;51.380;13.372;2023-05-24T09:52:09;100888.94;;;13.36;57.53
68525;BME280;55524;51.380;13.372;2023-05-24T09:54:38;100883.41;;;13.40;57.60
68525;BME280;55524;51.380;13.372;2023-05-24T09:57:06;100902.22;;;12.90;58.81
68525;BME280;55524;51.380;13.372;2023-05-24T09:59:33;100912.06;;;12.65;59.19
68525;BME280;55524;51.380;13.372;2023-05-24T10:02:07;100916.81;;;12.57;59.77
68525;BME280;55524;51.380;13.372;2023-05-24T10:04:35;100917.31;;;12.66;60.05
68525;BME280;55524;51.380;13.372;2023-05-24T10:07:02;100922.03;;;12.82;60.64
68525;BME280;55524;51.380;13.372;2023-05-24T10:09:29;100940.28;;;12.89;62.42
68525;BME280;55524;51.380;13.372;2023-05-24T10:12:03;100910.28;;;13.11;60.02
68525;BME280;55524;51.380;13.372;2023-05-24T10:14:35;100915.44;;;13.14;59.65
68525;BME280;55524;51.380;13.372;2023-05-24T10:17:08;100886.38;;;13.33;57.15
68525;BME280;55524;51.380;13.372;2023-05-24T10:19:35;100896.75;;;13.39;57.20
68525;BME280;55524;51.380;13.372;2023-05-24T10:22:06;100896.63;;;13.20;56.83
68525;BME280;55524;51.380;13.372;2023-05-24T10:24:45;100906.78;;;13.52;57.98
68525;BME280;55524;51.380;13.372;2023-05-24T10:27:22;100902.75;;;13.85;57.54
68525;BME280;55524;51.380;13.372;2023-05-24T10:32:26;100891.66;;;13.95;56.13
68525;BME280;55524;51.380;13.372;2023-05-24T10:34:58;100885.63;;;13.92;56.47
68525;BME280;55524;51.380;13.372;2023-05-24T10:37:25;100905.28;;;13.67;56.86
68525;BME280;55524;51.380;13.372;2023-05-24T10:39:52;100902.06;;;13.39;56.71
68525;BME280;55524;51.380;13.372;2023-05-24T10:42:18;100893.63;;;13.29;57.02
68525;BME280;55524;51.380;13.372;2023-05-24T10:44:45;100878.44;;;13.11;56.03
68525;BME280;55524;51.380;13.372;2023-05-24T10:47:13;100860.03;;;13.89;53.72
68525;BME280;55524;51.380;13.372;2023-05-24T10:49:49;100851.75;;;14.16;52.96
68525;BME280;55524;51.380;13.372;2023-05-24T10:52:19;100862.00;;;14.05;54.18
68525;BME280;55524;51.380;13.372;2023-05-24T10:55:05;100857.72;;;14.21;52.77
68525;BME280;55524;51.380;13.372;2023-05-24T10:57:33;100839.06;;;14.41;52.35
68525;BME280;55524;51.380;13.372;2023-05-24T11:03:05;100849.06;;;14.93;52.39
68525;BME280;55524;51.380;13.372;2023-05-24T11:08:12;100833.00;;;15.64;50.37
68525;BME280;55524;51.380;13.372;2023-05-24T11:10:39;100835.69;;;16.14;50.42
68525;BME280;55524;51.380;13.372;2023-05-24T11:13:09;100834.16;;;15.25;49.98
68525;BME280;55524;51.380;13.372;2023-05-24T11:15:36;100847.38;;;14.73;51.41
68525;BME280;55524;51.380;13.372;2023-05-24T11:20:35;100831.94;;;16.34;49.24
68525;BME280;55524;51.380;13.372;2023-05-24T11:23:03;100804.78;;;16.91;47.47
68525;BME280;55524;51.380;13.372;2023-05-24T11:25:31;100814.50;;;16.92;48.79
68525;BME280;55524;51.380;13.372;2023-05-24T11:27:58;100827.47;;;15.86;48.82
68525;BME280;55524;51.380;13.372;2023-05-24T11:30:26;100847.41;;;14.90;51.03
68525;BME280;55524;51.380;13.372;2023-05-24T11:32:53;100866.97;;;14.51;52.24
68525;BME280;55524;51.380;13.372;2023-05-24T11:35:19;100845.25;;;15.50;50.58
68525;BME280;55524;51.380;13.372;2023-05-24T11:37:48;100830.28;;;15.31;49.31
68525;BME280;55524;51.380;13.372;2023-05-24T11:40:15;100860.56;;;14.93;52.13
68525;BME280;55524;51.380;13.372;2023-05-24T11:42:43;100828.03;;;15.40;50.36
68525;BME280;55524;51.380;13.372;2023-05-24T11:45:09;100816.72;;;15.87;48.90
68525;BME280;55524;51.380;13.372;2023-05-24T11:47:39;100820.03;;;15.58;48.86
68525;BME280;55524;51.380;13.372;2023-05-24T11:50:06;100821.91;;;15.56;49.73
68525;BME280;55524;51.380;13.372;2023-05-24T11:52:39;100794.97;;;16.44;47.23
68525;BME280;55524;51.380;13.372;2023-05-24T11:55:06;100811.81;;;16.92;48.82
68525;BME280;55524;51.380;13.372;2023-05-24T11:57:42;100813.50;;;16.14;47.84
68525;BME280;55524;51.380;13.372;2023-05-24T12:00:11;100825.81;;;15.83;48.41
68525;BME280;55524;51.380;13.372;2023-05-24T12:02:42;100832.28;;;15.44;50.22
68525;BME280;55524;51.380;13.372;2023-05-24T12:05:09;100842.13;;;15.25;50.37
68525;BME280;55524;51.380;13.372;2023-05-24T12:07:38;100837.44;;;15.30;50.23
68525;BME280;55524;51.380;13.372;2023-05-24T12:10:06;100840.94;;;15.83;49.27
68525;BME280;55524;51.380;13.372;2023-05-24T12:12:33;100834.47;;;16.53;48.18
68525;BME280;55524;51.380;13.372;2023-05-24T12:15:00;100816.78;;;16.35;47.94
68525;BME280;55524;51.380;13.372;2023-05-24T12:17:26;100815.00;;;16.99;47.60
68525;BME280;55524;51.380;13.372;2023-05-24T12:19:52;100812.69;;;16.61;47.00
68525;BME280;55524;51.380;13.372;2023-05-24T12:22:24;100813.91;;;16.87;46.65
68525;BME280;55524;51.380;13.372;2023-05-24T12:24:51;100801.06;;;17.68;45.59
68525;BME280;55524;51.380;13.372;2023-05-24T12:27:17;100800.34;;;16.58;46.36
68525;BME280;55524;51.380;13.372;2023-05-24T12:29:44;100820.78;;;17.21;47.51
68525;BME280;55524;51.380;13.372;2023-05-24T12:32:11;100798.47;;;17.22;45.59
68525;BME280;55524;51.380;13.372;2023-05-24T12:34:40;100794.72;;;17.10;45.57
68525;BME280;55524;51.380;13.372;2023-05-24T12:37:08;100798.81;;;16.70;46.19
68525;BME280;55524;51.380;13.372;2023-05-24T12:39:35;100806.53;;;16.27;47.23
68525;BME280;55524;51.380;13.372;2023-05-24T12:42:03;100822.53;;;15.26;49.00
68525;BME280;55524;51.380;13.372;2023-05-24T12:44:32;100821.84;;;15.57;49.33
68525;BME280;55524;51.380;13.372;2023-05-24T12:47:00;100835.63;;;15.83;50.34
68525;BME280;55524;51.380;13.372;2023-05-24T12:49:27;100813.44;;;16.63;48.10
68525;BME280;55524;51.380;13.372;2023-05-24T12:51:54;100794.00;;;16.61;47.00
68525;BME280;55524;51.380;13.372;2023-05-24T12:54:26;100807.44;;;17.21;47.19
68525;BME280;55524;51.380;13.372;2023-05-24T12:56:54;100806.84;;;17.16;47.32
68525;BME280;55524;51.380;13.372;2023-05-24T12:59:21;100828.84;;;16.26;48.25
68525;BME280;55524;51.380;13.372;2023-05-24T13:01:47;100825.00;;;16.47;48.63
68525;BME280;55524;51.380;13.372;2023-05-24T13:04:21;100817.00;;;16.32;46.94
68525;BME280;55524;51.380;13.372;2023-05-24T13:06:48;100804.41;;;16.65;45.79
68525;BME280;55524;51.380;13.372;2023-05-24T13:09:15;100791.47;;;17.05;45.12
68525;BME280;55524;51.380;13.372;2023-05-24T13:11:45;100797.03;;;17.16;45.06
68525;BME280;55524;51.380;13.372;2023-05-24T13:14:12;100784.06;;;17.55;44.47
68525;BME280;55524;51.380;13.372;2023-05-24T13:16:39;100767.28;;;17.96;43.85
68525;BME280;55524;51.380;13.372;2023-05-24T13:19:05;100774.72;;;18.05;44.04
68525;BME280;55524;51.380;13.372;2023-05-24T13:21:31;100766.00;;;18.30;43.66
68525;BME280;55524;51.380;13.372;2023-05-24T13:23:58;100795.91;;;17.20;46.06